createdAt,value
2023-04-09T00:00:05.480Z,0.00
2023-04-09T00:03:08.281Z,0.00
2023-04-09T00:03:38.579Z,0.00
2023-04-09T00:04:39.251Z,0.00
2023-04-09T00:05:38.347Z,0.00
2023-04-09T00:06:38.655Z,0.00
2023-04-09T00:07:38.263Z,0.00
2023-04-09T00:08:38.235Z,0.00
2023-04-09T00:09:38.183Z,0.00
2023-04-09T00:10:38.245Z,0.00
2023-04-09T00:11:38.096Z,0.00
2023-04-09T00:12:38.055Z,0.00
2023-04-09T00:13:39.831Z,0.00
2023-04-09T00:14:37.981Z,0.00
2023-04-09T00:15:37.930Z,0.00
2023-04-09T00:16:38.482Z,0.00
2023-04-09T00:17:37.879Z,0.00
2023-04-09T00:18:37.811Z,0.00
2023-04-09T00:19:37.759Z,0.00
2023-04-09T00:20:37.724Z,0.00
2023-04-09T00:21:37.699Z,0.00
2023-04-09T00:22:37.652Z,0.00
2023-04-09T00:23:37.602Z,0.00
2023-04-09T00:24:37.561Z,0.00
2023-04-09T00:25:37.513Z,0.00
2023-04-09T00:26:37.472Z,0.00
2023-04-09T00:27:37.433Z,0.00
2023-04-09T00:28:37.395Z,0.00
2023-04-09T00:29:37.346Z,0.00
2023-04-09T00:30:37.316Z,0.00
2023-04-09T00:31:37.303Z,0.00
2023-04-09T00:32:37.225Z,0.00
2023-04-09T00:33:37.204Z,0.00
2023-04-09T00:34:37.132Z,0.00
2023-04-09T00:35:37.133Z,0.00
2023-04-09T00:36:37.050Z,0.00
2023-04-09T00:37:37.012Z,0.00
2023-04-09T00:38:36.986Z,0.00
2023-04-09T00:39:36.932Z,0.00
2023-04-09T00:40:36.889Z,0.00
2023-04-09T00:41:36.854Z,0.00
2023-04-09T00:42:36.813Z,0.00
2023-04-09T00:43:36.763Z,0.00
2023-04-09T00:44:36.727Z,0.00
2023-04-09T00:45:36.709Z,0.00
2023-04-09T00:46:36.633Z,0.00
2023-04-09T00:47:36.669Z,0.00
2023-04-09T00:48:36.548Z,0.00
2023-04-09T00:49:36.500Z,0.00
2023-04-09T00:50:36.465Z,0.00
2023-04-09T00:51:36.417Z,0.00
2023-04-09T00:52:36.373Z,0.00
2023-04-09T00:53:36.332Z,0.00
2023-04-09T00:54:36.286Z,0.00
2023-04-09T00:55:36.252Z,0.00
2023-04-09T00:56:36.211Z,0.00
2023-04-09T00:57:36.172Z,0.00
2023-04-09T00:58:36.127Z,0.00
2023-04-09T00:59:36.081Z,0.00
2023-04-09T01:00:36.059Z,0.00
2023-04-09T01:01:36.196Z,0.00
2023-04-09T01:02:36.121Z,0.00
2023-04-09T01:03:36.008Z,0.00
2023-04-09T01:04:35.901Z,0.00
2023-04-09T01:05:35.824Z,0.00
2023-04-09T01:06:35.784Z,0.00
2023-04-09T01:07:35.737Z,0.00
2023-04-09T01:08:35.697Z,0.00
2023-04-09T01:09:35.649Z,0.00
2023-04-09T01:10:35.627Z,0.00
2023-04-09T01:11:35.573Z,0.00
2023-04-09T01:12:35.526Z,0.00
2023-04-09T01:13:35.505Z,0.00
2023-04-09T01:14:35.433Z,0.00
2023-04-09T01:15:35.398Z,0.00
2023-04-09T01:16:35.391Z,0.00
2023-04-09T01:17:35.396Z,0.00
2023-04-09T01:18:35.262Z,0.00
2023-04-09T01:19:35.316Z,0.00
2023-04-09T01:20:35.186Z,0.00
2023-04-09T01:21:35.161Z,0.00
2023-04-09T01:22:35.096Z,0.00
2023-04-09T01:23:35.064Z,0.00
2023-04-09T01:24:35.016Z,0.00
2023-04-09T01:25:34.963Z,0.00
2023-04-09T01:26:34.929Z,0.00
2023-04-09T01:27:34.958Z,0.00
2023-04-09T01:28:34.836Z,0.00
2023-04-09T01:29:34.793Z,0.00
2023-04-09T01:30:34.795Z,0.00
2023-04-09T01:31:34.708Z,0.00
2023-04-09T01:32:34.680Z,0.00
2023-04-09T01:33:34.642Z,0.00
2023-04-09T01:34:34.581Z,0.00
2023-04-09T01:35:34.601Z,0.00
2023-04-09T01:36:34.501Z,0.00
2023-04-09T01:37:34.459Z,0.00
2023-04-09T01:38:34.408Z,0.00
2023-04-09T01:39:34.382Z,0.00
2023-04-09T01:40:34.322Z,0.00
2023-04-09T01:41:34.311Z,0.00
2023-04-09T01:42:34.249Z,0.00
2023-04-09T01:43:34.202Z,0.00
2023-04-09T01:44:34.164Z,0.00
2023-04-09T01:45:34.124Z,0.00
2023-04-09T01:46:34.125Z,0.00
2023-04-09T01:47:34.059Z,0.00
2023-04-09T01:48:33.998Z,0.00
2023-04-09T01:49:33.950Z,0.00
2023-04-09T01:50:33.899Z,0.00
2023-04-09T01:51:33.856Z,0.00
2023-04-09T01:52:33.826Z,0.00
2023-04-09T01:53:33.768Z,0.00
2023-04-09T01:54:33.740Z,0.00
2023-04-09T01:55:33.685Z,0.00
2023-04-09T01:56:33.637Z,0.00
2023-04-09T01:57:33.629Z,0.00
2023-04-09T01:58:33.565Z,0.00
2023-04-09T01:59:33.520Z,0.00
2023-04-09T02:00:33.471Z,0.00
2023-04-09T02:01:33.515Z,0.00
2023-04-09T02:02:33.473Z,0.00
2023-04-09T02:03:42.342Z,0.00
2023-04-09T02:04:33.298Z,0.00
2023-04-09T02:05:33.256Z,0.00
2023-04-09T02:06:33.230Z,0.00
2023-04-09T02:07:34.078Z,0.00
2023-04-09T02:08:33.128Z,0.00
2023-04-09T02:09:33.084Z,0.00
2023-04-09T02:10:33.089Z,0.00
2023-04-09T02:11:33.017Z,0.00
2023-04-09T02:12:32.956Z,0.00
2023-04-09T02:13:32.921Z,0.00
2023-04-09T02:14:32.876Z,0.00
2023-04-09T02:15:32.882Z,0.00
2023-04-09T02:16:32.796Z,0.00
2023-04-09T02:17:32.823Z,0.00
2023-04-09T02:18:32.725Z,0.00
2023-04-09T02:19:32.669Z,0.00
2023-04-09T02:20:32.617Z,0.00
2023-04-09T02:21:32.605Z,0.00
2023-04-09T02:22:32.534Z,0.00
2023-04-09T02:23:32.517Z,0.00
2023-04-09T02:24:32.443Z,0.00
2023-04-09T02:25:32.417Z,0.00
2023-04-09T02:26:32.359Z,0.00
2023-04-09T02:27:32.320Z,0.00
2023-04-09T02:28:32.276Z,0.00
2023-04-09T02:29:32.253Z,0.00
2023-04-09T02:30:32.198Z,0.00
2023-04-09T02:31:32.295Z,0.00
2023-04-09T02:32:32.144Z,0.00
2023-04-09T02:33:32.073Z,0.00
2023-04-09T02:34:32.035Z,0.00
2023-04-09T02:35:32.066Z,0.00
2023-04-09T02:36:31.946Z,0.00
2023-04-09T02:37:31.915Z,0.00
2023-04-09T02:38:31.851Z,0.00
2023-04-09T02:39:31.816Z,0.00
2023-04-09T02:40:31.763Z,0.00
2023-04-09T02:41:31.758Z,0.00
2023-04-09T02:42:31.700Z,0.00
2023-04-09T02:43:31.672Z,0.00
2023-04-09T02:44:31.595Z,0.00
2023-04-09T02:45:31.554Z,0.00
2023-04-09T02:46:31.579Z,0.00
2023-04-09T02:47:31.498Z,0.00
2023-04-09T02:48:31.429Z,0.00
2023-04-09T02:49:31.387Z,0.00
2023-04-09T02:50:31.343Z,0.00
2023-04-09T02:51:31.308Z,0.00
2023-04-09T02:52:31.275Z,0.00
2023-04-09T02:53:31.221Z,0.00
2023-04-09T02:54:31.192Z,0.00
2023-04-09T02:55:31.126Z,0.00
2023-04-09T02:56:31.098Z,0.00
2023-04-09T02:57:32.108Z,0.00
2023-04-09T02:58:30.996Z,0.00
2023-04-09T02:59:30.975Z,0.00
2023-04-09T03:00:30.908Z,0.00
2023-04-09T03:01:30.941Z,0.00
2023-04-09T03:02:30.935Z,0.00
2023-04-09T03:03:30.964Z,0.00
2023-04-09T03:04:30.743Z,0.00
2023-04-09T03:05:30.722Z,0.00
2023-04-09T03:06:30.667Z,0.00
2023-04-09T03:07:30.660Z,0.00
2023-04-09T03:08:30.572Z,0.00
2023-04-09T03:09:30.533Z,0.00
2023-04-09T03:10:30.499Z,0.00
2023-04-09T03:11:30.457Z,0.00
2023-04-09T03:12:30.396Z,0.00
2023-04-09T03:13:30.371Z,0.00
2023-04-09T03:14:30.318Z,0.00
2023-04-09T03:15:30.266Z,0.00
2023-04-09T03:16:30.240Z,0.00
2023-04-09T03:17:30.196Z,0.00
2023-04-09T03:18:30.144Z,0.00
2023-04-09T03:19:30.131Z,0.00
2023-04-09T03:20:30.059Z,0.00
2023-04-09T03:21:30.036Z,0.00
2023-04-09T03:22:29.984Z,0.00
2023-04-09T03:23:29.958Z,0.00
2023-04-09T03:24:29.881Z,0.00
2023-04-09T03:25:29.911Z,0.00
2023-04-09T03:26:29.795Z,0.00
2023-04-09T03:27:29.758Z,0.00
2023-04-09T03:28:29.707Z,0.00
2023-04-09T03:29:29.687Z,0.00
2023-04-09T03:30:29.633Z,0.00
2023-04-09T03:31:29.643Z,0.00
2023-04-09T03:32:29.567Z,0.00
2023-04-09T03:33:29.515Z,0.00
2023-04-09T03:34:29.475Z,0.00
2023-04-09T03:35:29.443Z,0.00
2023-04-09T03:36:29.371Z,0.00
2023-04-09T03:37:29.331Z,0.00
2023-04-09T03:38:29.287Z,0.00
2023-04-09T03:39:29.269Z,0.00
2023-04-09T03:40:29.195Z,0.00
2023-04-09T03:41:29.175Z,0.00
2023-04-09T03:42:29.113Z,0.00
2023-04-09T03:43:29.067Z,0.00
2023-04-09T03:44:29.050Z,0.00
2023-04-09T03:45:28.988Z,0.00
2023-04-09T03:46:29.008Z,0.00
2023-04-09T03:47:28.918Z,0.00
2023-04-09T03:48:28.847Z,0.00
2023-04-09T03:49:28.821Z,0.00
2023-04-09T03:50:28.772Z,0.00
2023-04-09T03:51:28.731Z,0.00
2023-04-09T03:52:28.678Z,0.00
2023-04-09T03:53:28.648Z,0.00
2023-04-09T03:54:28.596Z,0.00
2023-04-09T03:55:28.554Z,0.00
2023-04-09T03:56:28.503Z,0.00
2023-04-09T03:57:28.460Z,0.00
2023-04-09T03:58:28.418Z,0.00
2023-04-09T03:59:28.386Z,0.00
2023-04-09T04:00:28.345Z,0.00
2023-04-09T04:01:28.371Z,0.00
2023-04-09T04:02:28.333Z,0.00
2023-04-09T04:03:28.309Z,0.00
2023-04-09T04:04:28.275Z,0.00
2023-04-09T04:05:28.136Z,0.00
2023-04-09T04:06:28.089Z,0.00
2023-04-09T04:07:28.034Z,0.00
2023-04-09T04:08:27.992Z,0.00
2023-04-09T04:09:27.948Z,0.00
2023-04-09T04:10:27.909Z,0.00
2023-04-09T04:11:27.900Z,0.00
2023-04-09T04:12:27.817Z,0.00
2023-04-09T04:13:27.829Z,0.00
2023-04-09T04:14:27.738Z,0.00
2023-04-09T04:15:27.700Z,0.00
2023-04-09T04:16:27.716Z,0.00
2023-04-09T04:17:27.635Z,0.00
2023-04-09T04:18:27.560Z,0.00
2023-04-09T04:19:27.513Z,0.00
2023-04-09T04:20:27.472Z,0.00
2023-04-09T04:21:27.433Z,0.00
2023-04-09T04:22:27.453Z,0.00
2023-04-09T04:23:27.356Z,0.00
2023-04-09T04:24:27.299Z,0.00
2023-04-09T04:25:27.292Z,0.00
2023-04-09T04:26:27.209Z,0.00
2023-04-09T04:27:27.176Z,0.00
2023-04-09T04:28:27.114Z,0.00
2023-04-09T04:29:27.094Z,0.00
2023-04-09T04:30:27.028Z,0.00
2023-04-09T04:31:27.062Z,0.00
2023-04-09T04:32:26.986Z,0.00
2023-04-09T04:33:26.911Z,0.00
2023-04-09T04:34:26.876Z,0.00
2023-04-09T04:35:27.113Z,0.00
2023-04-09T04:36:26.788Z,0.00
2023-04-09T04:37:26.727Z,0.00
2023-04-09T04:38:26.689Z,0.00
2023-04-09T04:39:26.644Z,0.00
2023-04-09T04:40:26.606Z,5.63
2023-04-09T04:41:26.569Z,5.63
2023-04-09T04:42:26.526Z,5.63
2023-04-09T04:43:26.464Z,5.63
2023-04-09T04:44:26.431Z,5.63
2023-04-09T04:45:26.420Z,5.63
2023-04-09T04:46:26.340Z,11.25
2023-04-09T04:47:26.340Z,11.25
2023-04-09T04:48:26.248Z,11.25
2023-04-09T04:49:26.209Z,11.25
2023-04-09T04:50:26.210Z,16.88
2023-04-09T04:51:26.122Z,16.88
2023-04-09T04:52:26.087Z,16.88
2023-04-09T04:53:26.063Z,22.50
2023-04-09T04:54:25.989Z,22.50
2023-04-09T04:55:25.949Z,22.50
2023-04-09T04:56:25.904Z,28.13
2023-04-09T04:57:25.853Z,28.13
2023-04-09T04:58:25.823Z,33.75
2023-04-09T04:59:25.788Z,33.75
2023-04-09T05:00:25.726Z,33.75
2023-04-09T05:01:25.729Z,39.38
2023-04-09T05:02:25.838Z,39.38
2023-04-09T05:03:27.438Z,45.00
2023-04-09T05:04:25.557Z,45.00
2023-04-09T05:05:25.519Z,50.63
2023-04-09T05:06:25.483Z,50.63
2023-04-09T05:07:25.428Z,56.25
2023-04-09T05:08:25.376Z,61.88
2023-04-09T05:09:25.325Z,61.88
2023-04-09T05:10:25.291Z,67.50
2023-04-09T05:11:25.236Z,67.50
2023-04-09T05:12:25.229Z,73.13
2023-04-09T05:13:25.156Z,78.75
2023-04-09T05:14:25.155Z,78.75
2023-04-09T05:15:25.079Z,84.38
2023-04-09T05:16:25.039Z,90.00
2023-04-09T05:17:25.007Z,90.00
2023-04-09T05:18:24.957Z,95.63
2023-04-09T05:19:24.916Z,101.25
2023-04-09T05:20:24.846Z,101.25
2023-04-09T05:21:24.823Z,106.88
2023-04-09T05:22:24.758Z,106.88
2023-04-09T05:23:24.710Z,106.88
2023-04-09T05:24:24.692Z,112.50
2023-04-09T05:25:24.634Z,118.13
2023-04-09T05:26:24.588Z,123.75
2023-04-09T05:27:24.544Z,123.75
2023-04-09T05:28:24.499Z,129.38
2023-04-09T05:29:24.460Z,135.00
2023-04-09T05:30:24.442Z,140.63
2023-04-09T05:31:24.381Z,146.25
2023-04-09T05:32:24.352Z,146.25
2023-04-09T05:33:24.288Z,151.88
2023-04-09T05:34:24.231Z,157.50
2023-04-09T05:35:24.200Z,163.13
2023-04-09T05:36:24.187Z,163.13
2023-04-09T05:37:24.145Z,168.75
2023-04-09T05:38:24.060Z,168.75
2023-04-09T05:39:24.014Z,174.38
2023-04-09T05:40:23.980Z,174.38
2023-04-09T05:41:23.940Z,180.00
2023-04-09T05:42:23.920Z,180.00
2023-04-09T05:43:23.838Z,185.63
2023-04-09T05:44:23.807Z,185.63
2023-04-09T05:45:23.760Z,191.25
2023-04-09T05:46:23.740Z,191.25
2023-04-09T05:47:23.782Z,196.88
2023-04-09T05:48:23.650Z,196.88
2023-04-09T05:49:23.583Z,208.13
2023-04-09T05:50:23.561Z,219.38
2023-04-09T05:51:23.506Z,253.13
2023-04-09T05:52:23.456Z,309.38
2023-04-09T05:53:23.404Z,371.25
2023-04-09T05:54:23.366Z,399.38
2023-04-09T05:55:23.322Z,410.63
2023-04-09T05:56:23.744Z,421.88
2023-04-09T05:57:23.240Z,433.13
2023-04-09T05:58:23.195Z,444.38
2023-04-09T05:59:23.144Z,450.00
2023-04-09T06:00:23.112Z,455.63
2023-04-09T06:01:23.070Z,461.25
2023-04-09T06:02:23.246Z,472.50
2023-04-09T06:03:23.161Z,478.13
2023-04-09T06:04:23.139Z,483.75
2023-04-09T06:05:22.921Z,500.63
2023-04-09T06:06:22.869Z,506.25
2023-04-09T06:07:22.825Z,517.50
2023-04-09T06:08:22.801Z,523.13
2023-04-09T06:09:22.756Z,528.75
2023-04-09T06:10:22.708Z,540.00
2023-04-09T06:11:22.661Z,551.25
2023-04-09T06:12:22.641Z,556.88
2023-04-09T06:13:22.600Z,568.13
2023-04-09T06:14:22.549Z,573.75
2023-04-09T06:15:22.527Z,585.00
2023-04-09T06:16:22.503Z,596.25
2023-04-09T06:17:22.436Z,607.50
2023-04-09T06:18:22.381Z,607.50
2023-04-09T06:19:22.367Z,618.75
2023-04-09T06:20:22.303Z,635.63
2023-04-09T06:21:22.273Z,641.25
2023-04-09T06:22:22.226Z,646.88
2023-04-09T06:23:22.193Z,669.38
2023-04-09T06:24:22.149Z,675.00
2023-04-09T06:25:22.125Z,680.63
2023-04-09T06:26:22.091Z,697.50
2023-04-09T06:27:22.065Z,697.50
2023-04-09T06:28:21.997Z,714.38
2023-04-09T06:29:24.171Z,725.63
2023-04-09T06:30:21.929Z,736.88
2023-04-09T06:31:21.946Z,748.13
2023-04-09T06:32:21.891Z,765.00
2023-04-09T06:33:21.806Z,770.63
2023-04-09T06:34:21.773Z,787.50
2023-04-09T06:35:21.754Z,793.13
2023-04-09T06:36:21.702Z,810.00
2023-04-09T06:37:21.681Z,821.25
2023-04-09T06:38:21.628Z,832.50
2023-04-09T06:39:21.603Z,843.75
2023-04-09T06:40:23.078Z,855.00
2023-04-09T06:41:21.512Z,866.25
2023-04-09T06:42:21.473Z,871.88
2023-04-09T06:43:21.453Z,888.75
2023-04-09T06:44:21.424Z,905.63
2023-04-09T06:45:21.364Z,922.50
2023-04-09T06:46:21.406Z,933.75
2023-04-09T06:47:21.285Z,956.25
2023-04-09T06:48:21.280Z,967.50
2023-04-09T06:49:21.217Z,978.75
2023-04-09T06:50:21.189Z,1001.25
2023-04-09T06:51:21.146Z,1029.38
2023-04-09T06:52:21.127Z,1040.63
2023-04-09T06:53:21.099Z,1057.50
2023-04-09T06:54:21.041Z,1074.38
2023-04-09T06:55:21.016Z,1096.88
2023-04-09T06:56:20.966Z,1125.00
2023-04-09T06:57:20.942Z,1141.88
2023-04-09T06:58:20.915Z,1153.13
2023-04-09T06:59:20.863Z,1192.50
2023-04-09T07:00:20.829Z,1243.13
2023-04-09T07:01:20.829Z,1276.88
2023-04-09T07:02:20.882Z,1293.75
2023-04-09T07:03:20.941Z,1333.13
2023-04-09T07:04:20.782Z,1361.25
2023-04-09T07:05:20.649Z,1400.63
2023-04-09T07:06:20.625Z,1485.00
2023-04-09T07:07:20.590Z,1440.00
2023-04-09T07:08:20.552Z,1451.25
2023-04-09T07:09:20.509Z,1524.38
2023-04-09T07:10:20.502Z,1535.63
2023-04-09T07:11:20.460Z,1558.13
2023-04-09T07:12:20.410Z,1513.13
2023-04-09T07:13:20.370Z,1451.25
2023-04-09T07:14:20.345Z,1428.75
2023-04-09T07:15:20.300Z,1456.88
2023-04-09T07:16:20.335Z,1479.38
2023-04-09T07:17:20.268Z,1496.25
2023-04-09T07:18:20.213Z,1501.88
2023-04-09T07:19:20.172Z,1473.75
2023-04-09T07:20:20.136Z,1445.63
2023-04-09T07:21:20.106Z,1468.13
2023-04-09T07:22:20.076Z,1473.75
2023-04-09T07:23:20.026Z,1440.00
2023-04-09T07:24:20.004Z,1423.13
2023-04-09T07:25:19.977Z,1434.38
2023-04-09T07:26:19.930Z,1462.50
2023-04-09T07:27:19.899Z,1524.38
2023-04-09T07:28:19.854Z,1541.25
2023-04-09T07:29:19.817Z,1575.00
2023-04-09T07:30:19.795Z,1603.13
2023-04-09T07:31:19.791Z,1614.38
2023-04-09T07:32:19.715Z,1569.38
2023-04-09T07:33:19.694Z,1513.13
2023-04-09T07:34:19.657Z,1440.00
2023-04-09T07:35:19.619Z,1383.75
2023-04-09T07:36:19.597Z,1310.63
2023-04-09T07:37:19.537Z,1305.00
2023-04-09T07:38:19.521Z,1299.38
2023-04-09T07:39:19.465Z,1276.88
2023-04-09T07:40:19.435Z,1271.25
2023-04-09T07:41:19.396Z,1260.00
2023-04-09T07:42:19.367Z,1260.00
2023-04-09T07:43:20.773Z,1254.38
2023-04-09T07:44:19.312Z,1254.38
2023-04-09T07:45:19.269Z,1248.75
2023-04-09T07:46:19.254Z,1243.13
2023-04-09T07:47:19.196Z,1243.13
2023-04-09T07:48:19.160Z,1248.75
2023-04-09T07:49:19.121Z,1243.13
2023-04-09T07:50:19.122Z,1248.75
2023-04-09T07:51:19.048Z,1260.00
2023-04-09T07:52:19.013Z,1265.63
2023-04-09T07:53:18.980Z,1260.00
2023-04-09T07:54:18.957Z,1260.00
2023-04-09T07:55:18.924Z,1260.00
2023-04-09T07:56:18.900Z,1276.88
2023-04-09T07:57:18.845Z,1276.88
2023-04-09T07:58:18.858Z,1288.13
2023-04-09T07:59:18.784Z,1293.75
2023-04-09T08:00:18.742Z,1305.00
2023-04-09T08:01:18.718Z,1293.75
2023-04-09T08:02:18.767Z,1293.75
2023-04-09T08:03:18.878Z,1299.38
2023-04-09T08:04:27.971Z,1305.00
2023-04-09T08:05:18.686Z,1305.00
2023-04-09T08:06:18.540Z,1310.63
2023-04-09T08:07:18.505Z,1327.50
2023-04-09T08:08:18.471Z,1321.88
2023-04-09T08:09:18.488Z,1321.88
2023-04-09T08:10:18.401Z,1310.63
2023-04-09T08:11:18.395Z,1316.25
2023-04-09T08:12:18.329Z,1327.50
2023-04-09T08:13:18.293Z,1333.13
2023-04-09T08:14:18.264Z,1316.25
2023-04-09T08:15:18.255Z,1333.13
2023-04-09T08:16:18.211Z,1333.13
2023-04-09T08:17:18.157Z,1327.50
2023-04-09T08:18:18.127Z,1333.13
2023-04-09T08:19:18.096Z,1350.00
2023-04-09T08:20:18.059Z,1350.00
2023-04-09T08:21:18.038Z,1361.25
2023-04-09T08:22:18.002Z,1361.25
2023-04-09T08:23:17.978Z,1366.88
2023-04-09T08:24:17.929Z,1378.13
2023-04-09T08:25:17.913Z,1378.13
2023-04-09T08:26:17.883Z,1400.63
2023-04-09T08:27:17.823Z,1400.63
2023-04-09T08:28:17.820Z,1423.13
2023-04-09T08:29:17.790Z,1440.00
2023-04-09T08:30:18.847Z,1456.88
2023-04-09T08:31:17.687Z,1468.13
2023-04-09T08:32:17.734Z,1479.38
2023-04-09T08:33:17.625Z,1496.25
2023-04-09T08:34:17.607Z,1513.13
2023-04-09T08:35:17.567Z,1530.00
2023-04-09T08:36:17.584Z,1558.13
2023-04-09T08:37:17.492Z,1575.00
2023-04-09T08:38:17.480Z,1597.50
2023-04-09T08:39:17.416Z,1631.25
2023-04-09T08:40:17.389Z,1653.75
2023-04-09T08:41:17.371Z,1681.88
2023-04-09T08:42:17.331Z,1698.75
2023-04-09T08:43:17.294Z,1715.63
2023-04-09T08:44:17.258Z,1749.38
2023-04-09T08:45:17.233Z,1777.50
2023-04-09T08:46:17.280Z,1811.25
2023-04-09T08:47:17.155Z,1833.75
2023-04-09T08:48:17.216Z,1873.13
2023-04-09T08:49:17.097Z,1895.63
2023-04-09T08:50:17.103Z,1940.63
2023-04-09T08:51:17.036Z,1980.00
2023-04-09T08:52:17.000Z,2008.13
2023-04-09T08:53:16.956Z,2064.38
2023-04-09T08:54:16.938Z,2075.63
2023-04-09T08:55:16.898Z,2115.00
2023-04-09T08:56:16.860Z,2143.13
2023-04-09T08:57:16.830Z,2182.50
2023-04-09T08:58:16.792Z,2210.63
2023-04-09T08:59:16.768Z,2233.13
2023-04-09T09:00:16.739Z,2266.88
2023-04-09T09:01:16.739Z,2283.75
2023-04-09T09:02:16.700Z,2323.13
2023-04-09T09:03:16.690Z,2340.00
2023-04-09T09:04:16.632Z,2368.13
2023-04-09T09:05:16.593Z,2401.88
2023-04-09T09:06:16.529Z,2418.75
2023-04-09T09:07:16.505Z,2469.38
2023-04-09T09:08:16.455Z,2520.00
2023-04-09T09:09:16.439Z,2531.25
2023-04-09T09:10:16.429Z,2581.88
2023-04-09T09:11:16.391Z,2632.50
2023-04-09T09:12:16.343Z,2660.63
2023-04-09T09:13:16.310Z,2694.38
2023-04-09T09:14:16.265Z,2739.38
2023-04-09T09:15:16.227Z,2773.13
2023-04-09T09:16:16.313Z,2818.13
2023-04-09T09:17:16.197Z,2846.25
2023-04-09T09:18:16.152Z,2908.13
2023-04-09T09:19:16.119Z,2986.88
2023-04-09T09:20:16.071Z,3020.63
2023-04-09T09:21:16.070Z,3048.75
2023-04-09T09:22:16.050Z,3065.63
2023-04-09T09:23:16.004Z,3116.25
2023-04-09T09:24:15.951Z,3133.13
2023-04-09T09:25:15.914Z,3138.75
2023-04-09T09:26:15.897Z,3195.00
2023-04-09T09:27:15.835Z,3245.63
2023-04-09T09:28:15.798Z,3285.00
2023-04-09T09:29:15.806Z,3301.88
2023-04-09T09:30:16.343Z,3335.63
2023-04-09T09:31:15.785Z,3341.25
2023-04-09T09:32:15.695Z,3307.50
2023-04-09T09:33:15.682Z,3307.50
2023-04-09T09:34:15.620Z,3318.75
2023-04-09T09:35:15.596Z,3346.88
2023-04-09T09:36:15.591Z,3335.63
2023-04-09T09:37:15.519Z,3397.50
2023-04-09T09:38:15.487Z,3195.00
2023-04-09T09:39:15.473Z,3543.75
2023-04-09T09:40:15.419Z,3515.63
2023-04-09T09:41:15.391Z,3622.50
2023-04-09T09:42:15.398Z,3431.25
2023-04-09T09:43:15.337Z,3071.25
2023-04-09T09:44:15.290Z,3588.75
2023-04-09T09:45:15.259Z,3577.50
2023-04-09T09:46:15.345Z,3543.75
2023-04-09T09:47:15.185Z,3543.75
2023-04-09T09:48:15.170Z,3555.00
2023-04-09T09:49:15.127Z,3571.88
2023-04-09T09:50:15.095Z,3577.50
2023-04-09T09:51:15.060Z,3560.63
2023-04-09T09:52:15.021Z,3560.63
2023-04-09T09:53:14.997Z,3571.88
2023-04-09T09:54:14.983Z,3594.38
2023-04-09T09:55:14.932Z,3611.25
2023-04-09T09:56:14.888Z,3605.63
2023-04-09T09:57:14.894Z,3616.88
2023-04-09T09:58:14.827Z,3628.13
2023-04-09T09:59:14.796Z,3628.13
2023-04-09T10:00:14.804Z,3645.00
2023-04-09T10:01:14.760Z,3650.63
2023-04-09T10:02:14.721Z,3650.63
2023-04-09T10:03:14.715Z,3684.38
2023-04-09T10:04:14.689Z,3695.63
2023-04-09T10:05:14.607Z,3751.88
2023-04-09T10:06:14.661Z,3774.38
2023-04-09T10:07:14.552Z,3746.25
2023-04-09T10:08:14.512Z,3768.75
2023-04-09T10:09:14.543Z,3735.00
2023-04-09T10:10:14.458Z,3712.50
2023-04-09T10:11:14.413Z,3673.13
2023-04-09T10:12:14.393Z,3639.38
2023-04-09T10:13:14.352Z,3650.63
2023-04-09T10:14:14.336Z,3650.63
2023-04-09T10:15:14.298Z,3673.13
2023-04-09T10:16:14.320Z,3645.00
2023-04-09T10:17:14.223Z,3684.38
2023-04-09T10:18:14.204Z,3718.13
2023-04-09T10:19:14.281Z,3712.50
2023-04-09T10:20:14.134Z,3645.00
2023-04-09T10:21:14.097Z,3667.50
2023-04-09T10:22:14.072Z,3723.75
2023-04-09T10:23:14.034Z,3774.38
2023-04-09T10:24:14.003Z,3813.75
2023-04-09T10:25:14.001Z,3802.50
2023-04-09T10:26:13.937Z,3785.63
2023-04-09T10:27:16.276Z,3706.88
2023-04-09T10:28:13.874Z,3751.88
2023-04-09T10:29:13.851Z,3791.25
2023-04-09T10:30:13.813Z,3780.00
2023-04-09T10:31:13.836Z,3718.13
2023-04-09T10:32:13.761Z,3093.75
2023-04-09T10:33:13.727Z,3476.25
2023-04-09T10:34:13.712Z,3712.50
2023-04-09T10:35:13.669Z,3960.00
2023-04-09T10:36:13.654Z,3960.00
2023-04-09T10:37:13.618Z,3875.63
2023-04-09T10:38:13.562Z,3903.75
2023-04-09T10:39:13.544Z,3864.38
2023-04-09T10:40:13.514Z,3931.88
2023-04-09T10:41:13.465Z,3875.63
2023-04-09T10:42:13.468Z,3796.88
2023-04-09T10:43:13.432Z,3746.25
2023-04-09T10:44:13.387Z,3650.63
2023-04-09T10:45:13.352Z,3768.75
2023-04-09T10:46:13.343Z,3813.75
2023-04-09T10:47:13.281Z,3206.25
2023-04-09T10:48:13.258Z,3847.50
2023-04-09T10:49:13.231Z,4055.63
2023-04-09T10:50:13.174Z,4117.50
2023-04-09T10:51:13.153Z,4156.88
2023-04-09T10:52:13.120Z,4083.75
2023-04-09T10:53:13.092Z,3971.25
2023-04-09T10:54:13.056Z,4027.50
2023-04-09T10:55:13.085Z,3988.13
2023-04-09T10:56:13.000Z,3976.88
2023-04-09T10:57:12.963Z,2351.25
2023-04-09T10:58:13.801Z,1023.75
2023-04-09T10:59:12.902Z,984.38
2023-04-09T11:00:12.961Z,1057.50
2023-04-09T11:01:12.856Z,1327.50
2023-04-09T11:02:12.904Z,1580.63
2023-04-09T11:03:12.849Z,2390.63
2023-04-09T11:04:12.776Z,3982.50
2023-04-09T11:05:12.717Z,3841.88
2023-04-09T11:06:12.696Z,1591.88
2023-04-09T11:07:12.658Z,2508.75
2023-04-09T11:08:12.647Z,3487.50
2023-04-09T11:09:12.593Z,3043.13
2023-04-09T11:10:12.644Z,3667.50
2023-04-09T11:11:12.523Z,3673.13
2023-04-09T11:12:12.500Z,3611.25
2023-04-09T11:13:12.490Z,3611.25
2023-04-09T11:14:12.429Z,3611.25
2023-04-09T11:15:12.393Z,3510.00
2023-04-09T11:16:12.437Z,1850.63
2023-04-09T11:17:12.344Z,1451.25
2023-04-09T11:18:12.310Z,1203.75
2023-04-09T11:19:12.288Z,1676.25
2023-04-09T11:20:12.305Z,3555.00
2023-04-09T11:21:12.213Z,3600.00
2023-04-09T11:22:12.165Z,3611.25
2023-04-09T11:23:12.146Z,3538.13
2023-04-09T11:24:12.118Z,3436.88
2023-04-09T11:25:12.087Z,3369.38
2023-04-09T11:26:12.041Z,3307.50
2023-04-09T11:27:12.027Z,3256.88
2023-04-09T11:28:11.989Z,3268.13
2023-04-09T11:29:11.960Z,2626.88
2023-04-09T11:30:11.944Z,1451.25
2023-04-09T11:31:11.903Z,1856.25
2023-04-09T11:32:11.851Z,1192.50
2023-04-09T11:33:11.838Z,3189.38
2023-04-09T11:34:11.793Z,2081.25
2023-04-09T11:35:11.778Z,1136.25
2023-04-09T11:36:11.775Z,3060.00
2023-04-09T11:37:11.721Z,1783.13
2023-04-09T11:38:11.670Z,2205.00
2023-04-09T11:39:11.650Z,3234.38
2023-04-09T11:40:11.705Z,3313.13
2023-04-09T11:41:11.589Z,3313.13
2023-04-09T11:42:11.531Z,3251.25
2023-04-09T11:43:11.505Z,3318.75
2023-04-09T11:44:11.482Z,3335.63
2023-04-09T11:45:11.445Z,1136.25
2023-04-09T11:46:11.415Z,2334.38
2023-04-09T11:47:11.471Z,1726.88
2023-04-09T11:48:11.341Z,3566.25
2023-04-09T11:49:11.310Z,3577.50
2023-04-09T11:50:11.279Z,2261.25
2023-04-09T11:51:11.261Z,3526.88
2023-04-09T11:52:11.237Z,3515.63
2023-04-09T11:53:11.206Z,3448.13
2023-04-09T11:54:11.157Z,3510.00
2023-04-09T11:55:11.143Z,3425.63
2023-04-09T11:56:11.094Z,3380.63
2023-04-09T11:57:11.053Z,3453.75
2023-04-09T11:58:11.024Z,3487.50
2023-04-09T11:59:11.013Z,3493.13
2023-04-09T12:00:10.985Z,3560.63
2023-04-09T12:01:10.937Z,3583.13
2023-04-09T12:02:10.969Z,3684.38
2023-04-09T12:03:11.070Z,3633.75
2023-04-09T12:04:11.005Z,3729.38
2023-04-09T12:05:10.913Z,2508.75
2023-04-09T12:06:10.784Z,2002.50
2023-04-09T12:07:10.743Z,3493.13
2023-04-09T12:08:10.733Z,3391.88
2023-04-09T12:09:10.681Z,3414.38
2023-04-09T12:10:10.649Z,3448.13
2023-04-09T12:11:10.658Z,3465.00
2023-04-09T12:12:10.572Z,3487.50
2023-04-09T12:13:10.607Z,3476.25
2023-04-09T12:14:10.514Z,3510.00
2023-04-09T12:15:10.493Z,3375.00
2023-04-09T12:16:10.482Z,3465.00
2023-04-09T12:17:10.428Z,2221.88
2023-04-09T12:18:10.401Z,3150.00
2023-04-09T12:19:10.374Z,3391.88
2023-04-09T12:20:10.323Z,3363.75
2023-04-09T12:21:10.367Z,3431.25
2023-04-09T12:22:10.268Z,2272.50
2023-04-09T12:23:10.250Z,3549.38
2023-04-09T12:24:10.201Z,3566.25
2023-04-09T12:25:10.207Z,3605.63
2023-04-09T12:26:10.147Z,3571.88
2023-04-09T12:27:10.123Z,3875.63
2023-04-09T12:28:10.078Z,3633.75
2023-04-09T12:29:10.055Z,3785.63
2023-04-09T12:30:10.012Z,3757.50
2023-04-09T12:31:10.003Z,3645.00
2023-04-09T12:32:10.060Z,3701.25
2023-04-09T12:33:11.340Z,3785.63
2023-04-09T12:34:09.929Z,3768.75
2023-04-09T12:35:09.867Z,3740.63
2023-04-09T12:36:09.850Z,3031.88
2023-04-09T12:37:09.811Z,3650.63